ELLX Airport Information

Runway Information
Runway 06 Length 13123 ft width 197 ft
Elevation 1158 ft Threshold 0 ft Heading 60
Runway 24 Length 13123 ft Width 197 ft
Elevation 1214 ft Threshold 0 ft Heading 240
Airport Frequencies
Type APP Name APP Frequency 118.9 MHZ
Type ATIS Name ATIS Frequency 135.55 MHZ
Type TWR Name TWR Frequency 118.1 MHZ
Airport Navaids
Type NDB Name Luxembourg Frequency 369 KHZ
Type VOR-DME Name Luxembourg Frequency 112250 KHZ
Type NDB Name Luxembourg Frequency 346 KHZ
Airport Weather Information & NOTAM
ADDS - METARS form results

(2334 UTC 01 June 2020)
Data provider http://aviationweather.gov/metar/data/
 
METAR text: ELLX 012320Z 04008KT CAVOK 18/07 Q1019 NOSIG
Conditions at: ELLX (LUXEMBOURG (AUT), LU) observed 2320 UTC 01 June 2020
Temperature: 18.0°C (64°F)
Dewpoint: 7.0°C (45°F) [RH = 49%]
Pressure (altimeter): 30.09 inches Hg (1019.0 mb)
Winds: from the NE (40 degrees) at 9 MPH (8 knots; 4.1 m/s)
Visibility: 6 or more miles (10+ km)
Ceiling: ceiling and visibility are OK
Clouds: unknown
Weather: no significant weather observed at this time

METAR text: ELLX 012250Z 04008KT CAVOK 18/07 Q1019 NOSIG
Conditions at: ELLX (LUXEMBOURG (AUT), LU) observed 2250 UTC 01 June 2020
Temperature: 18.0°C (64°F)
Dewpoint: 7.0°C (45°F) [RH = 49%]
Pressure (altimeter): 30.09 inches Hg (1019.0 mb)
Winds: from the NE (40 degrees) at 9 MPH (8 knots; 4.1 m/s)
Visibility: 6 or more miles (10+ km)
Ceiling: ceiling and visibility are OK
Clouds: unknown
Weather: no significant weather observed at this time

Forecast for: ELLX (LUXEMBOURG (AUT), LU)
Text: TAF ELLX 012300Z 0200/0306 04008KT CAVOK
Forecast period: 0000 UTC 02 June 2020 to 0600 UTC 03 June 2020
Forecast type: FROM: standard forecast or significant change
Winds: from the NE (40 degrees) at 9 MPH (8 knots; 4.1 m/s)
Visibility: 6 or more miles 10+ km)
Ceiling: unknown
Clouds: missing
Weather: NSW  (no significant weather)